Weather Melbourne :: Current Conditions and Historical Data

 
Daily Summary for October 21, 2014 Units:  Both    English   Metric
« Previous Day
Next Day »
Daily Weekly Monthly Yearly Custom
  Current: High: Low: Average:
Temperature: 60.2 °F /  15.7 °C 60.2 °F /  15.7 °C 42.2 °F /  5.7 °C 47.1 °F /  8.4 °C
Dew Point: 50.7 °F /  10.4 °C 51.1 °F /  10.6 °C 39.6 °F /  4.2 °C 43.1 °F /  6.2 °C
Humidity: 71 % 94 % 71 % 86 %
Wind Speed: 2.0 mph /  3.2 km/h 5.8 mph /  9.3 km/h - 0.9 mph /  1.4 km/h
Wind Gust: 4.0 mph /  6.4 km/h 6.0 mph /  9.7 km/h - -
Wind:East - - NE
Pressure: 30.33 in /  1027 hPa 30.33 in /  1027 hPa 30.29 in /  1025.6 hPa -
Precipitation: 0.00 in /  0 mm      
Melbourne, Australia Weather Graphs
 
 
Melbourne, current snapshot. Courtesy of citylink.com.au
Weather Melbourne

Melbourne Weather Radar




Weather in Melbourne, AU
Hourly Data for October 21, 2014
Time Temperature Dew Point Pressure Wind Wind Speed Wind Gust Humidity Rainfall Rate (Hourly) solar Conditions
00:03 51.4 °F /  10.8 °C 43.4 °F /  6.3 °C 30.32 in /  1026.6 hPa Calm     74 % 0.00 in /  0 mm 0.0 W/m2 CLR
00:08 51.2 °F /  10.7 °C 43.5 °F /  6.4 °C 30.31 in /  1026.3 hPa Calm     75 % 0.00 in /  0 mm 0.0 W/m2 CLR
00:13 51.2 °F /  10.7 °C 43.9 °F /  6.6 °C 30.31 in /  1026.3 hPa Calm     76 % 0.00 in /  0 mm 0.0 W/m2 CLR
00:18 51.0 °F /  10.6 °C 44.0 °F /  6.7 °C 30.31 in /  1026.3 hPa Calm     77 % 0.00 in /  0 mm 0.0 W/m2 CLR
00:23 50.9 °F /  10.5 °C 43.9 °F /  6.6 °C 30.31 in /  1026.3 hPa Calm     77 % 0.00 in /  0 mm 0.0 W/m2 CLR
00:28 50.8 °F /  10.4 °C 44.2 °F /  6.8 °C 30.31 in /  1026.3 hPa Calm     78 % 0.00 in /  0 mm 0.0 W/m2 CLR
00:33 50.7 °F /  10.4 °C 43.8 °F /  6.6 °C 30.31 in /  1026.3 hPa Calm     77 % 0.00 in /  0 mm 0.0 W/m2 CLR
00:38 50.5 °F /  10.3 °C 43.9 °F /  6.6 °C 30.31 in /  1026.3 hPa Calm     78 % 0.00 in /  0 mm 0.0 W/m2 CLR
00:43 50.4 °F /  10.2 °C 44.1 °F /  6.7 °C 30.31 in /  1026.3 hPa Calm     79 % 0.00 in /  0 mm 0.0 W/m2 CLR
00:48 50.2 °F /  10.1 °C 43.9 °F /  6.6 °C 30.31 in /  1026.3 hPa Calm     79 % 0.00 in /  0 mm 0.0 W/m2 CLR
00:53 49.9 °F /  9.9 °C 44.0 °F /  6.7 °C 30.31 in /  1026.3 hPa Calm     80 % 0.00 in /  0 mm 0.0 W/m2 CLR
00:58 49.8 °F /  9.9 °C 43.9 °F /  6.6 °C 30.31 in /  1026.3 hPa Calm     80 % 0.00 in /  0 mm 0.0 W/m2 CLR
01:03 49.6 °F /  9.8 °C 44.0 °F /  6.7 °C 30.31 in /  1026.3 hPa Calm   0.2 mph /  0.3 km/h 81 % 0.00 in /  0 mm 0.0 W/m2 CLR
01:08 49.5 °F /  9.7 °C 43.9 °F /  6.6 °C 30.31 in /  1026.3 hPa NNE 3.5 mph /  5.6 km/h 3.5 mph /  5.6 km/h 81 % 0.00 in /  0 mm 0.0 W/m2 CLR
01:13 49.3 °F /  9.6 °C 44.0 °F /  6.7 °C 30.31 in /  1026.3 hPa NNE 3.5 mph /  5.6 km/h 3.5 mph /  5.6 km/h 82 % 0.00 in /  0 mm 0.0 W/m2 CLR
01:18 49.2 °F /  9.6 °C 43.9 °F /  6.6 °C 30.31 in /  1026.3 hPa NNE 1.2 mph /  1.9 km/h 1.2 mph /  1.9 km/h 82 % 0.00 in /  0 mm 0.0 W/m2 CLR
01:23 49.1 °F /  9.5 °C 43.8 °F /  6.6 °C 30.31 in /  1026.3 hPa North 4.0 mph /  6.4 km/h 4.0 mph /  6.4 km/h 82 % 0.00 in /  0 mm 0.0 W/m2 CLR
01:28 49.0 °F /  9.4 °C 43.7 °F /  6.5 °C 30.31 in /  1026.3 hPa NNE 3.5 mph /  5.6 km/h 3.5 mph /  5.6 km/h 82 % 0.00 in /  0 mm 0.0 W/m2 CLR
01:33 48.8 °F /  9.3 °C 43.9 °F /  6.6 °C 30.31 in /  1026.3 hPa North 3.5 mph /  5.6 km/h 3.5 mph /  5.6 km/h 83 % 0.00 in /  0 mm 0.0 W/m2 CLR
01:38 48.7 °F /  9.3 °C 43.8 °F /  6.6 °C 30.31 in /  1026.3 hPa NNE 2.3 mph /  3.7 km/h 2.3 mph /  3.7 km/h 83 % 0.00 in /  0 mm 0.0 W/m2 CLR
01:43 48.6 °F /  9.2 °C 43.7 °F /  6.5 °C 30.31 in /  1026.3 hPa North 3.5 mph /  5.6 km/h 3.5 mph /  5.6 km/h 83 % 0.00 in /  0 mm 0.0 W/m2 CLR
01:48 48.6 °F /  9.2 °C 43.7 °F /  6.5 °C 30.31 in /  1026.3 hPa North 1.2 mph /  1.9 km/h 1.2 mph /  1.9 km/h 83 % 0.00 in /  0 mm 0.0 W/m2 CLR
01:53 48.5 °F /  9.2 °C 43.6 °F /  6.4 °C 30.30 in /  1026 hPa NNE 2.3 mph /  3.7 km/h 2.3 mph /  3.7 km/h 83 % 0.00 in /  0 mm 0.0 W/m2 CLR
01:58 48.3 °F /  9.1 °C 43.4 °F /  6.3 °C 30.30 in /  1026 hPa NNE 1.2 mph /  1.9 km/h 1.2 mph /  1.9 km/h 83 % 0.00 in /  0 mm 0.0 W/m2 CLR
02:03 48.1 °F /  8.9 °C 43.2 °F /  6.2 °C 30.30 in /  1026 hPa NNE 1.0 mph /  1.6 km/h 1.0 mph /  1.6 km/h 83 % 0.00 in /  0 mm 0.0 W/m2 CLR
02:08 47.9 °F /  8.8 °C 43.0 °F /  6.1 °C 30.30 in /  1026 hPa NNE 2.3 mph /  3.7 km/h 2.3 mph /  3.7 km/h 83 % 0.00 in /  0 mm 0.0 W/m2 CLR
02:14 47.7 °F /  8.7 °C 42.8 °F /  6 °C 30.30 in /  1026 hPa Calm     83 % 0.00 in /  0 mm 0.0 W/m2 CLR
02:19 47.6 °F /  8.7 °C 42.7 °F /  5.9 °C 30.30 in /  1026 hPa NNE 1.2 mph /  1.9 km/h 1.2 mph /  1.9 km/h 83 % 0.00 in /  0 mm 0.0 W/m2 CLR
02:24 47.4 °F /  8.6 °C 42.5 °F /  5.8 °C 30.30 in /  1026 hPa NNE 2.3 mph /  3.7 km/h 2.3 mph /  3.7 km/h 83 % 0.00 in /  0 mm 0.0 W/m2 CLR
02:29 47.3 °F /  8.5 °C 42.7 °F /  5.9 °C 30.30 in /  1026 hPa NNE 2.3 mph /  3.7 km/h 2.3 mph /  3.7 km/h 84 % 0.00 in /  0 mm 0.0 W/m2 CLR
02:34 47.2 °F /  8.4 °C 42.6 °F /  5.9 °C 30.29 in /  1025.6 hPa NNE 1.2 mph /  1.9 km/h 1.2 mph /  1.9 km/h 84 % 0.00 in /  0 mm 0.0 W/m2 CLR
02:39 47.1 °F /  8.4 °C 42.5 °F /  5.8 °C 30.29 in /  1025.6 hPa Calm     84 % 0.00 in /  0 mm 0.0 W/m2 CLR
02:44 47.0 °F /  8.3 °C 42.4 °F /  5.8 °C 30.29 in /  1025.6 hPa Calm     84 % 0.00 in /  0 mm 0.0 W/m2 CLR
02:49 46.9 °F /  8.3 °C 42.3 °F /  5.7 °C 30.29 in /  1025.6 hPa Calm     84 % 0.00 in /  0 mm 0.0 W/m2 CLR
02:54 46.8 °F /  8.2 °C 42.2 °F /  5.7 °C 30.29 in /  1025.6 hPa NNE 1.2 mph /  1.9 km/h 1.2 mph /  1.9 km/h 84 % 0.00 in /  0 mm 0.0 W/m2 CLR
02:59 46.7 °F /  8.2 °C 42.4 °F /  5.8 °C 30.30 in /  1026 hPa Calm     85 % 0.00 in /  0 mm 0.0 W/m2 CLR
03:04 46.5 °F /  8.1 °C 42.2 °F /  5.7 °C 30.29 in /  1025.6 hPa Calm     85 % 0.00 in /  0 mm 0.0 W/m2 CLR
03:09 46.4 °F /  8 °C 42.1 °F /  5.6 °C 30.29 in /  1025.6 hPa Calm     85 % 0.00 in /  0 mm 0.0 W/m2 CLR
03:14 46.3 °F /  7.9 °C 42.0 °F /  5.6 °C 30.29 in /  1025.6 hPa Calm     85 % 0.00 in /  0 mm 0.0 W/m2 CLR
03:19 46.2 °F /  7.9 °C 41.9 °F /  5.5 °C 30.30 in /  1026 hPa Calm     85 % 0.00 in /  0 mm 0.0 W/m2 CLR
03:24 46.1 °F /  7.8 °C 42.1 °F /  5.6 °C 30.29 in /  1025.6 hPa NNE 1.2 mph /  1.9 km/h 1.2 mph /  1.9 km/h 86 % 0.00 in /  0 mm 0.0 W/m2 CLR
03:29 46.0 °F /  7.8 °C 42.0 °F /  5.6 °C 30.29 in /  1025.6 hPa Calm     86 % 0.00 in /  0 mm 0.0 W/m2 CLR
03:34 45.9 °F /  7.7 °C 41.9 °F /  5.5 °C 30.29 in /  1025.6 hPa NNE 2.3 mph /  3.7 km/h 2.3 mph /  3.7 km/h 86 % 0.00 in /  0 mm 0.0 W/m2 CLR
03:39 45.8 °F /  7.7 °C 41.9 °F /  5.5 °C 30.29 in /  1025.6 hPa NNE 2.3 mph /  3.7 km/h 2.3 mph /  3.7 km/h 86 % 0.00 in /  0 mm 0.0 W/m2 CLR
03:44 45.6 °F /  7.6 °C 42.0 °F /  5.6 °C 30.29 in /  1025.6 hPa NNE 2.3 mph /  3.7 km/h 2.3 mph /  3.7 km/h 87 % 0.00 in /  0 mm 0.0 W/m2 CLR
03:49 45.5 °F /  7.5 °C 41.9 °F /  5.5 °C 30.30 in /  1026 hPa NNE 1.2 mph /  1.9 km/h 1.2 mph /  1.9 km/h 87 % 0.00 in /  0 mm 0.0 W/m2 CLR
03:54 45.4 °F /  7.4 °C 41.8 °F /  5.4 °C 30.30 in /  1026 hPa Calm     87 % 0.00 in /  0 mm 0.0 W/m2 CLR
03:59 45.3 °F /  7.4 °C 41.7 °F /  5.4 °C 30.30 in /  1026 hPa NE 2.3 mph /  3.7 km/h 2.3 mph /  3.7 km/h 87 % 0.00 in /  0 mm 0.0 W/m2 CLR
04:04 45.2 °F /  7.3 °C 41.6 °F /  5.3 °C 30.30 in /  1026 hPa NNE 2.3 mph /  3.7 km/h 2.3 mph /  3.7 km/h 87 % 0.00 in /  0 mm 0.0 W/m2 CLR
04:09 45.1 °F /  7.3 °C 41.8 °F /  5.4 °C 30.30 in /  1026 hPa NNE 2.3 mph /  3.7 km/h 2.3 mph /  3.7 km/h 88 % 0.00 in /  0 mm 0.0 W/m2 CLR
04:14 45.0 °F /  7.2 °C 41.7 °F /  5.4 °C 30.29 in /  1025.6 hPa NNE 1.2 mph /  1.9 km/h   88 % 0.00 in /  0 mm 0.0 W/m2 CLR
04:19 44.9 °F /  7.2 °C 41.6 °F /  5.3 °C 30.29 in /  1025.6 hPa NNE 1.2 mph /  1.9 km/h 1.2 mph /  1.9 km/h 88 % 0.00 in /  0 mm 0.0 W/m2 CLR
04:24 44.9 °F /  7.2 °C 41.6 °F /  5.3 °C 30.29 in /  1025.6 hPa NNE 2.3 mph /  3.7 km/h 2.3 mph /  3.7 km/h 88 % 0.00 in /  0 mm 0.0 W/m2 CLR
04:29 44.7 °F /  7.1 °C 41.4 °F /  5.2 °C 30.29 in /  1025.6 hPa NE 2.3 mph /  3.7 km/h 2.3 mph /  3.7 km/h 88 % 0.00 in /  0 mm 0.0 W/m2 CLR
04:34 44.6 °F /  7 °C 41.3 °F /  5.2 °C 30.29 in /  1025.6 hPa NE 2.3 mph /  3.7 km/h 2.3 mph /  3.7 km/h 88 % 0.00 in /  0 mm 0.0 W/m2 CLR
04:39 44.5 °F /  6.9 °C 41.2 °F /  5.1 °C 30.29 in /  1025.6 hPa NE 2.0 mph /  3.2 km/h 2.0 mph /  3.2 km/h 88 % 0.00 in /  0 mm 0.0 W/m2 CLR
04:44 44.4 °F /  6.9 °C 41.1 °F /  5.1 °C 30.29 in /  1025.6 hPa NE 2.3 mph /  3.7 km/h 2.3 mph /  3.7 km/h 88 % 0.00 in /  0 mm 0.0 W/m2 CLR
04:49 44.3 °F /  6.8 °C 41.0 °F /  5 °C 30.29 in /  1025.6 hPa NE 1.2 mph /  1.9 km/h 1.2 mph /  1.9 km/h 88 % 0.00 in /  0 mm 0.0 W/m2 CLR
04:54 44.2 °F /  6.8 °C 41.2 °F /  5.1 °C 30.29 in /  1025.6 hPa NE 2.3 mph /  3.7 km/h 2.3 mph /  3.7 km/h 89 % 0.00 in /  0 mm 0.0 W/m2 CLR
04:59 44.1 °F /  6.7 °C 41.1 °F /  5.1 °C 30.29 in /  1025.6 hPa NE 1.2 mph /  1.9 km/h   89 % 0.00 in /  0 mm 0.0 W/m2 CLR
05:04 44.0 °F /  6.7 °C 41.0 °F /  5 °C 30.29 in /  1025.6 hPa Calm   0.1 mph /  0.2 km/h 89 % 0.00 in /  0 mm 0.0 W/m2 CLR
05:09 43.8 °F /  6.6 °C 40.8 °F /  4.9 °C 30.29 in /  1025.6 hPa NE 1.2 mph /  1.9 km/h   89 % 0.00 in /  0 mm 0.0 W/m2 CLR
05:14 43.8 °F /  6.6 °C 40.8 °F /  4.9 °C 30.29 in /  1025.6 hPa Calm     89 % 0.00 in /  0 mm 0.0 W/m2 CLR
05:19 43.6 °F /  6.4 °C 40.6 °F /  4.8 °C 30.29 in /  1025.6 hPa Calm     89 % 0.00 in /  0 mm 0.0 W/m2 CLR
05:24 43.4 °F /  6.3 °C 40.4 °F /  4.7 °C 30.29 in /  1025.6 hPa NE 1.2 mph /  1.9 km/h 1.2 mph /  1.9 km/h 89 % 0.00 in /  0 mm 0.0 W/m2 CLR
05:29 43.4 °F /  6.3 °C 40.4 °F /  4.7 °C 30.29 in /  1025.6 hPa NE 2.3 mph /  3.7 km/h 2.3 mph /  3.7 km/h 89 % 0.00 in /  0 mm 0.0 W/m2 CLR
05:34 43.4 °F /  6.3 °C 40.4 °F /  4.7 °C 30.29 in /  1025.6 hPa Calm     89 % 0.00 in /  0 mm 0.0 W/m2 CLR
05:39 43.3 °F /  6.3 °C 40.6 °F /  4.8 °C 30.29 in /  1025.6 hPa Calm     90 % 0.00 in /  0 mm 0.0 W/m2 CLR
05:44 43.2 °F /  6.2 °C 40.5 °F /  4.7 °C 30.29 in /  1025.6 hPa Calm     90 % 0.00 in /  0 mm 0.0 W/m2 CLR
05:49 43.1 °F /  6.2 °C 40.4 °F /  4.7 °C 30.29 in /  1025.6 hPa Calm     90 % 0.00 in /  0 mm 0.0 W/m2 CLR
05:54 43.0 °F /  6.1 °C 40.3 °F /  4.6 °C 30.30 in /  1026 hPa Calm     90 % 0.00 in /  0 mm 0.0 W/m2 CLR
05:59 42.9 °F /  6.1 °C 40.2 °F /  4.6 °C 30.30 in /  1026 hPa Calm     90 % 0.00 in /  0 mm 0.0 W/m2 CLR
06:04 42.8 °F /  6 °C 40.1 °F /  4.5 °C 30.30 in /  1026 hPa Calm     90 % 0.00 in /  0 mm 0.0 W/m2 CLR
06:09 42.7 °F /  5.9 °C 40.0 °F /  4.4 °C 30.30 in /  1026 hPa Calm     90 % 0.00 in /  0 mm 0.0 W/m2 CLR
06:14 42.6 °F /  5.9 °C 39.9 °F /  4.4 °C 30.30 in /  1026 hPa Calm     90 % 0.00 in /  0 mm 0.0 W/m2 OVC
06:19 42.6 °F /  5.9 °C 39.9 °F /  4.4 °C 30.30 in /  1026 hPa Calm     90 % 0.00 in /  0 mm 0.0 W/m2 OVC
06:24 42.7 °F /  5.9 °C 40.0 °F /  4.4 °C 30.30 in /  1026 hPa Calm   0.8 mph /  1.3 km/h 90 % 0.00 in /  0 mm 0.0 W/m2 OVC
06:29 42.7 °F /  5.9 °C 40.0 °F /  4.4 °C 30.30 in /  1026 hPa NE 1.2 mph /  1.9 km/h   90 % 0.00 in /  0 mm 0.0 W/m2 OVC
06:34 42.6 °F /  5.9 °C 39.9 °F /  4.4 °C 30.30 in /  1026 hPa Calm     90 % 0.00 in /  0 mm 7.0 W/m2 BKN
06:39 42.5 °F /  5.8 °C 40.1 °F /  4.5 °C 30.30 in /  1026 hPa Calm     91 % 0.00 in /  0 mm 9.0 W/m2 BKN
06:44 42.4 °F /  5.8 °C 40.0 °F /  4.4 °C 30.31 in /  1026.3 hPa NE 1.2 mph /  1.9 km/h   91 % 0.00 in /  0 mm 12.0 W/m2 BKN
06:49 42.4 °F /  5.8 °C 40.0 °F /  4.4 °C 30.30 in /  1026 hPa Calm     91 % 0.00 in /  0 mm 14.0 W/m2 BKN
06:54 42.3 °F /  5.7 °C 39.6 °F /  4.2 °C 30.31 in /  1026.3 hPa Calm     90 % 0.00 in /  0 mm 16.0 W/m2 BKN
06:59 42.3 °F /  5.7 °C 39.9 °F /  4.4 °C 30.31 in /  1026.3 hPa Calm     91 % 0.00 in /  0 mm 19.0 W/m2 BKN
07:04 42.3 °F /  5.7 °C 39.9 °F /  4.4 °C 30.31 in /  1026.3 hPa Calm     91 % 0.00 in /  0 mm 21.0 W/m2 BKN
07:09 42.2 °F /  5.7 °C 39.8 °F /  4.3 °C 30.31 in /  1026.3 hPa Calm     91 % 0.00 in /  0 mm 23.0 W/m2 BKN
07:14 42.2 °F /  5.7 °C 39.8 °F /  4.3 °C 30.31 in /  1026.3 hPa Calm     91 % 0.00 in /  0 mm 25.0 W/m2 BKN
07:19 42.2 °F /  5.7 °C 39.8 °F /  4.3 °C 30.31 in /  1026.3 hPa Calm     91 % 0.00 in /  0 mm 26.0 W/m2 BKN
07:24 42.3 °F /  5.7 °C 39.9 °F /  4.4 °C 30.32 in /  1026.6 hPa Calm     91 % 0.00 in /  0 mm 30.0 W/m2 BKN
07:29 42.4 °F /  5.8 °C 39.9 °F /  4.4 °C 30.32 in /  1026.6 hPa Calm     91 % 0.00 in /  0 mm 30.0 W/m2 BKN
07:34 42.5 °F /  5.8 °C 40.0 °F /  4.4 °C 30.32 in /  1026.6 hPa Calm     91 % 0.00 in /  0 mm 151.0 W/m2 BKN
07:39 42.7 °F /  5.9 °C 40.3 °F /  4.6 °C 30.32 in /  1026.6 hPa Calm     91 % 0.00 in /  0 mm 167.0 W/m2 SCT
07:44 43.2 °F /  6.2 °C 41.0 °F /  5 °C 30.32 in /  1026.6 hPa Calm     92 % 0.00 in /  0 mm 186.0 W/m2 FEW
07:49 43.9 °F /  6.6 °C 41.7 °F /  5.4 °C 30.32 in /  1026.6 hPa Calm     92 % 0.00 in /  0 mm 213.0 W/m2 FEW
07:54 44.7 °F /  7.1 °C 42.8 °F /  6 °C 30.32 in /  1026.6 hPa Calm     93 % 0.00 in /  0 mm 232.0 W/m2 FEW
07:59 45.2 °F /  7.3 °C 43.3 °F /  6.3 °C 30.32 in /  1026.6 hPa Calm     93 % 0.00 in /  0 mm 250.0 W/m2 CLR
08:04 46.0 °F /  7.8 °C 44.1 °F /  6.7 °C 30.32 in /  1026.6 hPa Calm     93 % 0.00 in /  0 mm 267.0 W/m2 CLR
08:09 46.6 °F /  8.1 °C 44.7 °F /  7.1 °C 30.33 in /  1027 hPa Calm     93 % 0.00 in /  0 mm 287.0 W/m2 CLR
08:14 47.4 °F /  8.6 °C 45.7 °F /  7.6 °C 30.33 in /  1027 hPa Calm     94 % 0.00 in /  0 mm 313.0 W/m2 CLR
08:19 48.1 °F /  8.9 °C 46.4 °F /  8 °C 30.33 in /  1027 hPa Calm     94 % 0.00 in /  0 mm 332.0 W/m2 CLR
08:24 48.7 °F /  9.3 °C 47.1 °F /  8.4 °C 30.33 in /  1027 hPa Calm     94 % 0.00 in /  0 mm 348.0 W/m2 CLR
08:29 49.7 °F /  9.8 °C 48.0 °F /  8.9 °C 30.33 in /  1027 hPa Calm     94 % 0.00 in /  0 mm 366.0 W/m2 CLR
08:34 50.4 °F /  10.2 °C 48.5 °F /  9.2 °C 30.33 in /  1027 hPa Calm     93 % 0.00 in /  0 mm 383.0 W/m2 CLR
08:39 51.0 °F /  10.6 °C 49.0 °F /  9.4 °C 30.33 in /  1027 hPa Calm     93 % 0.00 in /  0 mm 403.0 W/m2 CLR
08:44 51.5 °F /  10.8 °C 49.3 °F /  9.6 °C 30.33 in /  1027 hPa Calm     92 % 0.00 in /  0 mm 420.0 W/m2 CLR
08:49 52.1 °F /  11.2 °C 49.8 °F /  9.9 °C 30.33 in /  1027 hPa Calm     92 % 0.00 in /  0 mm 439.0 W/m2 CLR
08:54 52.7 °F /  11.5 °C 49.8 °F /  9.9 °C 30.33 in /  1027 hPa East 2.3 mph /  3.7 km/h 2.3 mph /  3.7 km/h 90 % 0.00 in /  0 mm 457.0 W/m2 CLR
08:59 53.3 °F /  11.8 °C 50.1 °F /  10.1 °C 30.33 in /  1027 hPa ENE 5.8 mph /  9.3 km/h 5.8 mph /  9.3 km/h 89 % 0.00 in /  0 mm 476.0 W/m2 CLR
09:04 53.8 °F /  12.1 °C 50.1 °F /  10.1 °C 30.33 in /  1027 hPa ENE 2.0 mph /  3.2 km/h 4.0 mph /  6.4 km/h 87 % 0.00 in /  0 mm 492.0 W/m2 CLR
09:09 54.5 °F /  12.5 °C 50.4 °F /  10.2 °C 30.33 in /  1027 hPa ENE 2.0 mph /  3.2 km/h 5.0 mph /  8 km/h 86 % 0.00 in /  0 mm 506.0 W/m2 CLR
09:14 55.4 °F /  13 °C 50.6 °F /  10.3 °C 30.33 in /  1027 hPa ENE 1.0 mph /  1.6 km/h 3.0 mph /  4.8 km/h 84 % 0.00 in /  0 mm 524.0 W/m2 CLR
09:19 56.2 °F /  13.4 °C 50.4 °F /  10.2 °C 30.33 in /  1027 hPa ENE 1.0 mph /  1.6 km/h 4.0 mph /  6.4 km/h 81 % 0.00 in /  0 mm 541.0 W/m2 CLR
09:24 57.0 °F /  13.9 °C 50.5 °F /  10.3 °C 30.33 in /  1027 hPa ENE 1.0 mph /  1.6 km/h 4.0 mph /  6.4 km/h 79 % 0.00 in /  0 mm 557.0 W/m2 CLR
09:29 57.8 °F /  14.3 °C 50.9 °F /  10.5 °C 30.33 in /  1027 hPa East 2.0 mph /  3.2 km/h 4.0 mph /  6.4 km/h 78 % 0.00 in /  0 mm 575.0 W/m2 CLR
09:34 58.7 °F /  14.8 °C 51.1 °F /  10.6 °C 30.33 in /  1027 hPa East 3.0 mph /  4.8 km/h 6.0 mph /  9.7 km/h 76 % 0.00 in /  0 mm 592.0 W/m2 CLR
09:39 59.5 °F /  15.3 °C 50.8 °F /  10.4 °C 30.33 in /  1027 hPa East 3.0 mph /  4.8 km/h 5.0 mph /  8 km/h 73 % 0.00 in /  0 mm 610.0 W/m2 CLR
09:44 60.2 °F /  15.7 °C 50.7 °F /  10.4 °C 30.33 in /  1027 hPa East 2.0 mph /  3.2 km/h 4.0 mph /  6.4 km/h 71 % 0.00 in /  0 mm 622.0 W/m2 CLR
Melbourne Forecast
About Melbourne | City of Melbourne official website